MSC Francesca — 3FXI — position and weather

sailwx.info

Track history (hours):
 
Tides and Currents Weather Stations Pressure Air Temp Water Temp Dewpoint Dewpoint Depression Visibility Wind Speed Wind Dir Waves Ship Positions

MSC Francesca

Last reported at 2017-Sep-22 02:00 UTC. Time now 2017-Oct-17 08:11 UTC.
Position N 36°48' E 000°06'.
Warning: this ship's position is 25 days out of date.

Length 363 m; draft 16.1 m.

Type: Ship (hazmat cat A). MMSI: 370993000.

Date/timePositionNaut miles runAvg speedWind from/ knotsBaromVisibWave heightAir tempDewpointWater temp
2017-Sep-22 02:00N 36°48' E 000°06'918.3
2017-Sep-22 01:31N 36°46' W 000°05'918.3
2017-Sep-22 01:00N 36°44' W 000°16'918.5
2017-Sep-22 00:30N 36°41' W 000°27'918.3
2017-Sep-22 00:00N 36°39' W 000°38'917.9
2017-Sep-21 23:30N 36°37' W 000°49'918.1
2017-Sep-21 23:00N 36°36' W 000°60'918.4
2017-Sep-21 22:31N 36°33' W 001°11'1019.0
2017-Sep-21 22:00N 36°31' W 001°23'1119.3
2017-Sep-21 21:27N 36°28' W 001°35'1619.1
2017-Sep-21 20:38N 36°25' W 001°55'319.1
2017-Sep-21 20:28N 36°24' W 001°58'919.0
2017-Sep-21 20:00N 36°22' W 002°09'918.9
2017-Sep-21 19:30N 36°20' W 002°20'918.7
2017-Sep-21 19:00N 36°18' W 002°32'918.8
2017-Sep-21 18:30N 36°17' W 002°43'22118.3
2017-Sep-21 06:28N 36°05' W 007°16'817.2
2017-Sep-21 06:00N 36°08' W 007°26'917.3
2017-Sep-21 05:30N 36°10' W 007°36'917.7
2017-Sep-21 04:58N 36°12' W 007°48'817.8
2017-Sep-21 04:30N 36°14' W 007°57'918.2
2017-Sep-21 04:00N 36°17' W 008°08'918.1
2017-Sep-21 03:31N 36°20' W 008°19'918.3
2017-Sep-21 03:00N 36°22' W 008°30'918.4
2017-Sep-21 02:30N 36°25' W 008°41'918.3
2017-Sep-21 02:01N 36°28' W 008°52'918.4
2017-Sep-21 01:30N 36°30' W 009°02'918.3
2017-Sep-21 01:01N 36°34' W 009°13'917.6
2017-Sep-21 00:31N 36°39' W 009°22'918.9
2017-Sep-21 00:01N 36°46' W 009°30'917.8
2017-Sep-20 23:31N 36°54' W 009°33'918.0
2017-Sep-20 23:00N 37°03' W 009°31'918.4
2017-Sep-20 22:31N 37°11' W 009°25'918.6
2017-Sep-20 22:01N 37°19' W 009°18'918.4
2017-Sep-20 21:31N 37°26' W 009°12'918.4
2017-Sep-20 21:00N 37°34' W 009°06'918.6
2017-Sep-20 20:31N 37°42' W 008°59'918.5
2017-Sep-20 20:01N 37°50' W 008°53'612.5
2017-Sep-20 19:30N 37°56' W 008°51'0 0.4
2017-Sep-20 18:58N 37°56' W 008°51'0 0.0
2017-Sep-20 18:28N 37°56' W 008°51'0 0.0
2017-Sep-20 17:58N 37°56' W 008°51'0 0.0
2017-Sep-20 17:28N 37°56' W 008°51'0 0.0
2017-Sep-20 16:58N 37°56' W 008°51'0 0.0
2017-Sep-20 16:28N 37°56' W 008°51'0 0.0
2017-Sep-20 15:58N 37°56' W 008°51'0 0.0
2017-Sep-20 15:28N 37°56' W 008°51'0 0.0
2017-Sep-20 14:55N 37°56' W 008°51'0 0.0
2017-Sep-20 13:58N 37°56' W 008°51'0 0.0
2017-Sep-20 13:28N 37°56' W 008°51'0 0.0
2017-Sep-20 12:58N 37°56' W 008°51'0 0.0
2017-Sep-20 12:28N 37°56' W 008°51'0 0.0
2017-Sep-20 11:58N 37°56' W 008°51'0 0.0
2017-Sep-20 11:28N 37°56' W 008°51'0 0.0
2017-Sep-20 10:58N 37°56' W 008°51'0 0.0
2017-Sep-20 10:28N 37°56' W 008°51'0 0.0
2017-Sep-20 09:58N 37°56' W 008°51'0 0.0
2017-Sep-20 09:28N 37°56' W 008°51'0 0.0
2017-Sep-20 08:58N 37°56' W 008°51'0 0.1
2017-Sep-20 08:30N 37°56' W 008°51'0 0.9
2017-Sep-20 08:01N 37°55' W 008°50'2 4.3
2017-Sep-20 07:31N 37°54' W 008°52'4 7.4
2017-Sep-20 07:00N 37°54' W 008°56'611.4
2017-Sep-20 06:31N 37°55' W 009°03'510.9
2017-Sep-20 06:00N 37°58' W 009°09'713.8
2017-Sep-20 05:30N 38°02' W 009°16'918.0
2017-Sep-20 05:00N 38°08' W 009°24'918.2
2017-Sep-20 04:30N 38°15' W 009°33'1020.4
2017-Sep-20 04:01N 38°21' W 009°43'1121.1
2017-Sep-20 03:30N 38°28' W 009°53'1121.0
2017-Sep-20 03:00N 38°35' W 010°03'1121.1
2017-Sep-20 02:30N 38°45' W 010°05'1121.2
2017-Sep-20 02:00N 38°56' W 010°05'1121.2
2017-Sep-20 01:30N 39°07' W 010°04'1121.2
2017-Sep-20 01:00N 39°17' W 010°04'1121.3
2017-Sep-20 00:30N 39°28' W 010°04'1121.4
2017-Sep-20 00:00N 39°39' W 010°04'1221.4
2017-Sep-19 23:26N 39°51' W 010°06'921.5
2017-Sep-19 23:00N 39°60' W 010°06'50820.8
2017-Sep-18 22:38N 48°03' W 006°29'6522.0
2017-Sep-18 19:39N 48°59' W 005°36'322.6
2017-Sep-18 19:30N 49°00' W 005°31'1122.2
2017-Sep-18 19:00N 49°06' W 005°17'6320.5
2017-Sep-18 15:56N 49°37' W 003°53'919.7
2017-Sep-18 15:30N 49°41' W 003°41'1020.0
2017-Sep-18 15:00N 49°47' W 003°28'1120.6
2017-Sep-18 14:29N 49°52' W 003°14'1021.5
2017-Sep-18 14:00N 49°57' W 002°60'1122.4
2017-Sep-18 13:30N 49°60' W 002°43'1223.5
2017-Sep-18 13:00N 50°03' W 002°25'1224.2
2017-Sep-18 12:30N 50°06' W 002°07'1224.6
2017-Sep-18 12:01N 50°09' W 001°49'1224.3
2017-Sep-18 11:31N 50°13' W 001°31'1223.5
2017-Sep-18 11:01N 50°16' W 001°13'2821.9
2017-Sep-18 09:45N 50°23' W 000°31'521.1
2017-Sep-18 09:30N 50°24' W 000°23'1020.7
2017-Sep-18 09:00N 50°27' W 000°08'1720.1
2017-Sep-18 08:10N 50°31' E 000°18'519.6
2017-Sep-18 07:54N 50°33' E 000°26'819.6
2017-Sep-18 07:30N 50°35' E 000°37'1020.2
2017-Sep-18 07:00N 50°42' E 000°50'1121.1
2017-Sep-18 06:30N 50°49' E 001°02'1122.2
2017-Sep-18 06:00N 50°55' E 001°17'1223.9
2017-Sep-18 05:31N 51°03' E 001°30'1224.1
2017-Sep-18 05:00N 51°12' E 001°44'1122.7
2017-Sep-18 04:30N 51°22' E 001°51'1121.3
2017-Sep-18 04:01N 51°31' E 002°01'1121.4
2017-Sep-18 03:30N 51°38' E 002°13'1121.0
2017-Sep-18 03:00N 51°46' E 002°25'3319.1
2017-Sep-18 01:16N 52°02' E 003°12'620.2
2017-Sep-18 00:59N 52°03' E 003°21'919.1
2017-Sep-18 00:30N 52°03' E 003°36'917.6
2017-Sep-18 00:00N 52°03' E 003°50'5 9.1
2017-Sep-17 23:30N 52°01' E 003°57'510.9
2017-Sep-17 23:00N 51°59' E 004°05'1 2.3
2017-Sep-17 22:30N 51°58' E 004°04'0 0.3
2017-Sep-17 21:58N 51°58' E 004°04'0 0.0
2017-Sep-17 21:28N 51°58' E 004°04'0 0.0
2017-Sep-17 20:58N 51°58' E 004°04'0 0.0
2017-Sep-17 20:28N 51°58' E 004°04'0 0.0
2017-Sep-17 19:58N 51°58' E 004°04'0 0.0
2017-Sep-17 19:28N 51°58' E 004°04'0 0.0
2017-Sep-17 18:58N 51°58' E 004°04'0 0.0
2017-Sep-17 18:28N 51°58' E 004°04'0 0.0
2017-Sep-17 17:58N 51°58' E 004°04'0 0.0
2017-Sep-17 17:28N 51°58' E 004°04'0 0.0
2017-Sep-17 16:58N 51°58' E 004°04'0 0.0
2017-Sep-17 16:28N 51°58' E 004°04'0 0.0
2017-Sep-17 15:58N 51°58' E 004°04'0 0.0
2017-Sep-17 15:28N 51°58' E 004°04'0 0.0
2017-Sep-17 14:58N 51°58' E 004°04'0 0.0
2017-Sep-17 14:28N 51°58' E 004°04'0 0.0
2017-Sep-17 13:58N 51°58' E 004°04'0 0.0
2017-Sep-17 13:28N 51°58' E 004°04'0 0.0
2017-Sep-17 12:58N 51°58' E 004°04'0 0.0
2017-Sep-17 12:28N 51°58' E 004°04'0 0.0
2017-Sep-17 11:58N 51°58' E 004°04'0 0.0
2017-Sep-17 11:28N 51°58' E 004°04'0 0.0
2017-Sep-17 10:58N 51°58' E 004°04'0 0.0
2017-Sep-17 10:28N 51°58' E 004°04'0 0.0
2017-Sep-17 09:58N 51°58' E 004°04'0 0.0
2017-Sep-17 09:28N 51°58' E 004°04'0 0.0
2017-Sep-17 08:58N 51°58' E 004°04'0 0.0
2017-Sep-17 08:28N 51°58' E 004°04'0 0.0
2017-Sep-17 07:58N 51°58' E 004°04'0 0.0
2017-Sep-17 07:28N 51°58' E 004°04'0 0.0
2017-Sep-17 06:58N 51°58' E 004°04'0 0.0
2017-Sep-17 06:28N 51°58' E 004°04'0 0.0
2017-Sep-17 05:58N 51°58' E 004°04'0 0.0
2017-Sep-17 05:28N 51°58' E 004°04'0 0.0
2017-Sep-17 04:58N 51°58' E 004°04'0 0.0
2017-Sep-17 04:28N 51°58' E 004°04'0 0.0
2017-Sep-17 03:58N 51°58' E 004°04'0 0.0
2017-Sep-17 03:28N 51°58' E 004°04'0 0.0
2017-Sep-17 02:58N 51°58' E 004°04'0 0.0
2017-Sep-17 02:28N 51°58' E 004°04'0 0.0
2017-Sep-17 01:58N 51°58' E 004°04'0 0.0
2017-Sep-17 01:28N 51°58' E 004°04'0 0.0
2017-Sep-17 00:58N 51°58' E 004°04'0 0.0
2017-Sep-17 00:28N 51°58' E 004°04'0 0.0
2017-Sep-16 23:58N 51°58' E 004°04'0 0.0
2017-Sep-16 23:28N 51°58' E 004°04'0 0.0
2017-Sep-16 22:58N 51°58' E 004°04'0 0.0
2017-Sep-16 22:28N 51°58' E 004°04'0 0.0
2017-Sep-16 21:58N 51°58' E 004°04'0 0.0
2017-Sep-16 21:28N 51°58' E 004°04'0 0.0
2017-Sep-16 20:58N 51°58' E 004°04'0 0.0
2017-Sep-16 20:28N 51°58' E 004°04'0 0.0
2017-Sep-16 19:58N 51°58' E 004°04'0 0.0
2017-Sep-16 19:28N 51°58' E 004°04'0 0.0
2017-Sep-16 18:58N 51°58' E 004°04'0 0.0
2017-Sep-16 18:28N 51°58' E 004°04'0 0.0
2017-Sep-16 17:58N 51°58' E 004°04'0 0.0
2017-Sep-16 17:28N 51°58' E 004°04'0 0.0
2017-Sep-16 16:58N 51°58' E 004°04'0 0.0
2017-Sep-16 16:28N 51°58' E 004°04'0 0.0
2017-Sep-16 15:58N 51°58' E 004°04'0 0.0
2017-Sep-16 15:28N 51°58' E 004°04'0 0.0
2017-Sep-16 14:58N 51°58' E 004°04'0 0.0
2017-Sep-16 14:28N 51°58' E 004°04'0 0.0
2017-Sep-16 13:58N 51°58' E 004°04'0 0.0
2017-Sep-16 13:28N 51°58' E 004°04'0 0.0
2017-Sep-16 12:58N 51°58' E 004°04'0 0.0
2017-Sep-16 12:28N 51°58' E 004°04'0 0.0
2017-Sep-16 11:58N 51°58' E 004°04'0 0.0
2017-Sep-16 11:28N 51°58' E 004°04'0 0.0
2017-Sep-16 10:58N 51°58' E 004°04'0 0.0
2017-Sep-16 10:28N 51°58' E 004°04'0 0.0
2017-Sep-16 09:58N 51°58' E 004°04'0 0.0
2017-Sep-16 09:28N 51°58' E 004°04'0 0.0
2017-Sep-16 08:58N 51°58' E 004°04'0 0.0
2017-Sep-16 08:28N 51°58' E 004°04'0 0.0
2017-Sep-16 07:58N 51°58' E 004°04'0 0.0
2017-Sep-16 07:28N 51°58' E 004°04'0 0.0
2017-Sep-16 07:00N 51°58' E 004°04'0 0.9
2017-Sep-16 06:30N 51°58' E 004°04'2 3.4
2017-Sep-16 06:00N 51°59' E 004°03'612.1
2017-Sep-16 05:30N 52°00' E 003°54'612.2
2017-Sep-16 05:00N 52°01' E 003°44'4 7.5
2017-Sep-16 04:30N 51°58' E 003°39'510.5
2017-Sep-16 04:00N 51°56' E 003°31'510.2
2017-Sep-16 03:30N 51°53' E 003°25'0 0.2
2017-Sep-16 02:33N 51°52' E 003°25'0 0.2
2017-Sep-16 02:30N 51°52' E 003°25'0 0.1
2017-Sep-16 02:00N 51°52' E 003°25'0 0.1
2017-Sep-16 01:30N 51°52' E 003°26'0 0.1
2017-Sep-16 01:00N 51°52' E 003°26'0 0.1
2017-Sep-16 00:30N 51°53' E 003°26'0 0.1
2017-Sep-16 00:00N 51°53' E 003°26'0 0.0
2017-Sep-15 23:30N 51°53' E 003°26'0 0.0
2017-Sep-15 23:00N 51°53' E 003°26'0 0.0
2017-Sep-15 22:30N 51°53' E 003°26'0 0.0
2017-Sep-15 21:57N 51°53' E 003°26'0 0.0
2017-Sep-15 21:27N 51°53' E 003°26'0 0.1
2017-Sep-15 19:18N 51°52' E 003°26'0 0.1
2017-Sep-15 18:57N 51°52' E 003°26'0 0.1
2017-Sep-15 18:30N 51°52' E 003°26'0 0.1
2017-Sep-15 17:00N 51°52' E 003°25'0 0.0
2017-Sep-15 16:18N 51°52' E 003°25'0 0.0
2017-Sep-15 16:00N 51°52' E 003°25'0 0.1
2017-Sep-15 14:03N 51°52' E 003°26'0 0.1
2017-Sep-15 13:42N 51°52' E 003°26'0 0.1
2017-Sep-15 12:06N 51°53' E 003°26'0 0.1
2017-Sep-15 12:00N 51°53' E 003°26'0 0.1
2017-Sep-15 11:12N 51°53' E 003°26'0 0.0
2017-Sep-15 09:15N 51°53' E 003°26'0 0.0
2017-Sep-15 08:30N 51°53' E 003°26'0 0.1
2017-Sep-15 06:51N 51°52' E 003°26'0 0.0
2017-Sep-15 06:27N 51°52' E 003°26'0 0.1
2017-Sep-15 05:24N 51°52' E 003°25'0 0.1
2017-Sep-15 04:39N 51°52' E 003°25'0 0.1
2017-Sep-15 04:24N 51°52' E 003°25'0 0.0
2017-Sep-15 04:00N 51°52' E 003°25'0 0.0
2017-Sep-15 03:27N 51°52' E 003°25'0 0.0
2017-Sep-15 02:33N 51°52' E 003°25'0 0.1
2017-Sep-15 02:30N 51°52' E 003°25'0 0.0
2017-Sep-15 01:15N 51°52' E 003°25'0 0.1
2017-Sep-15 00:57N 51°52' E 003°25'0 0.1
2017-Sep-14 23:54N 51°52' E 003°26'0 0.2
2017-Sep-14 23:15N 51°53' E 003°26'0 0.0
2017-Sep-14 22:48N 51°53' E 003°26'0 0.1
2017-Sep-14 22:27N 51°53' E 003°26'0 0.0
2017-Sep-14 21:51N 51°53' E 003°26'0 0.0
2017-Sep-14 20:57N 51°53' E 003°26'0 0.0
2017-Sep-14 14:36N 51°52' E 003°26'0 0.0
2017-Sep-14 14:27N 51°52' E 003°26'0 0.1
2017-Sep-14 12:03N 51°53' E 003°26'0 0.1
2017-Sep-14 11:42N 51°53' E 003°26'0 0.2
2017-Sep-14 11:12N 51°53' E 003°26'0 0.1
2017-Sep-14 10:42N 51°53' E 003°26'0 0.2
2017-Sep-14 10:30N 51°53' E 003°26'0 0.1
2017-Sep-14 10:00N 51°53' E 003°26'0 0.1
2017-Sep-14 09:30N 51°53' E 003°26'0 0.1
2017-Sep-14 09:00N 51°53' E 003°26'0 0.0
2017-Sep-14 08:30N 51°53' E 003°26'0 0.0
2017-Sep-14 08:00N 51°53' E 003°26'0 0.0
2017-Sep-14 07:30N 51°53' E 003°26'0 0.1
2017-Sep-14 07:00N 51°53' E 003°26'0 0.0
2017-Sep-14 06:30N 51°53' E 003°26'0 0.1
2017-Sep-14 06:00N 51°53' E 003°26'0 0.1
2017-Sep-14 05:30N 51°53' E 003°26'0 0.2
2017-Sep-14 05:00N 51°53' E 003°26'0 0.0
2017-Sep-14 04:30N 51°53' E 003°26'0 0.0
2017-Sep-14 04:00N 51°52' E 003°26'0 0.2
2017-Sep-14 03:30N 51°52' E 003°26'0 0.0
2017-Sep-14 03:00N 51°52' E 003°26'0 0.0
2017-Sep-14 02:30N 51°52' E 003°26'0 0.0
2017-Sep-14 02:00N 51°52' E 003°26'0 0.2
2017-Sep-14 01:30N 51°53' E 003°26'0 0.0
2017-Sep-14 01:00N 51°53' E 003°26'0 0.1
2017-Sep-14 00:30N 51°53' E 003°26'0 0.0
2017-Sep-14 00:00N 51°53' E 003°26'0 0.1
2017-Sep-13 23:30N 51°53' E 003°26'0 0.0
2017-Sep-13 23:00N 51°53' E 003°26'0 0.0
2017-Sep-13 22:30N 51°53' E 003°26'0 0.1
2017-Sep-13 22:00N 51°53' E 003°26'0 0.1
2017-Sep-13 21:30N 51°53' E 003°26'0 0.0
2017-Sep-13 21:00N 51°53' E 003°26'0 0.3
2017-Sep-13 20:30N 51°53' E 003°26'510.2
2017-Sep-13 20:00N 51°52' E 003°17'2810.2
2017-Sep-13 17:17N 51°45' E 002°34'5 8.7
2017-Sep-13 16:41N 51°41' E 002°29'1 8.5
2017-Sep-13 16:30N 51°40' E 002°27'4 8.0
2017-Sep-13 16:00N 51°36' E 002°23'4 7.1
2017-Sep-13 15:30N 51°34' E 002°20'4 7.9
2017-Sep-13 15:01N 51°31' E 002°15'4 8.0
2017-Sep-13 14:31N 51°28' E 002°11'4 8.2
2017-Sep-13 14:01N 51°25' E 002°07'3 5.0
2017-Sep-13 13:30N 51°22' E 002°09'3 5.9
2017-Sep-13 13:01N 51°21' E 002°13'3 6.1
2017-Sep-13 12:31N 51°20' E 002°18'3 6.9
2017-Sep-13 12:01N 51°21' E 002°23'3 6.9
2017-Sep-13 11:30N 51°23' E 002°29'3 5.7
2017-Sep-13 11:01N 51°23' E 002°33'3 5.8
2017-Sep-13 10:31N 51°23' E 002°38'3 5.9
2017-Sep-13 10:01N 51°22' E 002°42'4 8.5
2017-Sep-13 09:30N 51°25' E 002°48'4 7.8
2017-Sep-13 09:01N 51°25' E 002°54'714.4
2017-Sep-13 08:31N 51°24' E 003°05'917.1
2017-Sep-13 08:00N 51°24' E 003°19'917.1
2017-Sep-13 07:30N 51°25' E 003°33'3 6.1
2017-Sep-13 07:01N 51°26' E 003°37'713.5
2017-Sep-13 06:31N 51°22' E 003°46'713.8
2017-Sep-13 06:01N 51°23' E 003°57'4 7.6
2017-Sep-13 05:30N 51°24' E 004°02'510.2
2017-Sep-13 05:00N 51°23' E 004°10'5 9.7
2017-Sep-13 04:30N 51°20' E 004°16'2 4.7
2017-Sep-13 04:00N 51°18' E 004°16'0 0.0
2017-Sep-13 03:29N 51°18' E 004°16'0 0.0
2017-Sep-13 02:56N 51°18' E 004°16'0 0.0
2017-Sep-13 02:29N 51°18' E 004°16'0 0.0
2017-Sep-13 01:59N 51°18' E 004°16'0 0.0
2017-Sep-13 01:29N 51°18' E 004°16'0 0.0
2017-Sep-13 00:59N 51°18' E 004°16'0 0.0
2017-Sep-13 00:26N 51°18' E 004°16'0 0.0
2017-Sep-12 23:59N 51°18' E 004°16'0 0.0
2017-Sep-12 23:29N 51°18' E 004°16'0 0.0
2017-Sep-12 22:59N 51°18' E 004°16'0 0.0
2017-Sep-12 22:29N 51°18' E 004°16'0 0.0
2017-Sep-12 21:59N 51°18' E 004°16'0 0.0
2017-Sep-12 21:29N 51°18' E 004°16'0 0.0
2017-Sep-12 20:59N 51°18' E 004°16'0 0.0
2017-Sep-12 20:29N 51°18' E 004°16'0 0.0
2017-Sep-12 19:59N 51°18' E 004°16'0 0.0
2017-Sep-12 19:29N 51°18' E 004°16'0 0.0
2017-Sep-12 18:59N 51°18' E 004°16'0 0.0
2017-Sep-12 18:29N 51°18' E 004°16'0 0.0
2017-Sep-12 17:59N 51°18' E 004°16'0 0.0
2017-Sep-12 17:29N 51°18' E 004°16'0 0.0
2017-Sep-12 16:59N 51°18' E 004°16'0 0.0
2017-Sep-12 16:29N 51°18' E 004°16'0 0.0
2017-Sep-12 15:59N 51°18' E 004°16'0 0.0
2017-Sep-12 15:29N 51°18' E 004°16'0 0.0
2017-Sep-12 14:59N 51°18' E 004°16'0 0.0
2017-Sep-12 14:29N 51°18' E 004°16'0 0.0
2017-Sep-12 13:59N 51°18' E 004°16'0 0.0
2017-Sep-12 13:29N 51°18' E 004°16'0 0.0
2017-Sep-12 12:59N 51°18' E 004°16'0 0.0
2017-Sep-12 12:29N 51°18' E 004°16'0 0.0
2017-Sep-12 11:59N 51°18' E 004°16'0 0.0
2017-Sep-12 11:29N 51°18' E 004°16'0 0.0
2017-Sep-12 10:59N 51°18' E 004°16'0 0.0
2017-Sep-12 10:29N 51°18' E 004°16'0 0.0
2017-Sep-12 09:59N 51°18' E 004°16'0 0.0
2017-Sep-12 09:29N 51°18' E 004°16'0 0.0
2017-Sep-12 08:59N 51°18' E 004°16'0 0.0
2017-Sep-12 08:29N 51°18' E 004°16'0 0.0
2017-Sep-12 07:59N 51°18' E 004°16'0 0.0
2017-Sep-12 07:29N 51°18' E 004°16'0 0.0
2017-Sep-12 06:59N 51°18' E 004°16'0 0.0
2017-Sep-12 06:29N 51°18' E 004°16'0 0.0
2017-Sep-12 05:59N 51°18' E 004°16'0 0.0
2017-Sep-12 05:29N 51°18' E 004°16'0 0.0
2017-Sep-12 04:59N 51°18' E 004°16'0 0.0
2017-Sep-12 04:26N 51°18' E 004°16'0 0.0
2017-Sep-12 03:59N 51°18' E 004°16'0 0.0
2017-Sep-12 03:29N 51°18' E 004°16'0 0.0
2017-Sep-12 02:59N 51°18' E 004°16'0 0.0
2017-Sep-12 02:29N 51°18' E 004°16'  
Track history (hours):
 
Tides and Currents Weather Stations Pressure Air Temp Water Temp Dewpoint Dewpoint Depression Visibility Wind Speed Wind Dir Waves Ship Positions

MSC Francesca

Last reported at 2017-Sep-22 02:00 UTC. Time now 2017-Oct-17 08:11 UTC.
Position N 36°48' E 000°06'.
Warning: this ship's position is 25 days out of date.

Length 363 m; draft 16.1 m.

Type: Ship (hazmat cat A). MMSI: 370993000.

Date/timePositionNaut miles runAvg speedWind from/ knotsBaromVisibWave heightAir tempDewpointWater temp
2017-Sep-22 02:00N 36°48' E 000°06'918.3
2017-Sep-22 01:31N 36°46' W 000°05'918.3
2017-Sep-22 01:00N 36°44' W 000°16'918.5
2017-Sep-22 00:30N 36°41' W 000°27'918.3
2017-Sep-22 00:00N 36°39' W 000°38'917.9
2017-Sep-21 23:30N 36°37' W 000°49'918.1
2017-Sep-21 23:00N 36°36' W 000°60'918.4
2017-Sep-21 22:31N 36°33' W 001°11'1019.0
2017-Sep-21 22:00N 36°31' W 001°23'1119.3
2017-Sep-21 21:27N 36°28' W 001°35'1619.1
2017-Sep-21 20:38N 36°25' W 001°55'319.1
2017-Sep-21 20:28N 36°24' W 001°58'919.0
2017-Sep-21 20:00N 36°22' W 002°09'918.9
2017-Sep-21 19:30N 36°20' W 002°20'918.7
2017-Sep-21 19:00N 36°18' W 002°32'918.8
2017-Sep-21 18:30N 36°17' W 002°43'22118.3
2017-Sep-21 06:28N 36°05' W 007°16'817.2
2017-Sep-21 06:00N 36°08' W 007°26'917.3
2017-Sep-21 05:30N 36°10' W 007°36'917.7
2017-Sep-21 04:58N 36°12' W 007°48'817.8
2017-Sep-21 04:30N 36°14' W 007°57'918.2
2017-Sep-21 04:00N 36°17' W 008°08'918.1
2017-Sep-21 03:31N 36°20' W 008°19'918.3
2017-Sep-21 03:00N 36°22' W 008°30'918.4
2017-Sep-21 02:30N 36°25' W 008°41'918.3
2017-Sep-21 02:01N 36°28' W 008°52'918.4
2017-Sep-21 01:30N 36°30' W 009°02'918.3
2017-Sep-21 01:01N 36°34' W 009°13'917.6
2017-Sep-21 00:31N 36°39' W 009°22'918.9
2017-Sep-21 00:01N 36°46' W 009°30'917.8
2017-Sep-20 23:31N 36°54' W 009°33'918.0
2017-Sep-20 23:00N 37°03' W 009°31'918.4
2017-Sep-20 22:31N 37°11' W 009°25'918.6
2017-Sep-20 22:01N 37°19' W 009°18'918.4
2017-Sep-20 21:31N 37°26' W 009°12'918.4
2017-Sep-20 21:00N 37°34' W 009°06'918.6
2017-Sep-20 20:31N 37°42' W 008°59'918.5
2017-Sep-20 20:01N 37°50' W 008°53'612.5
2017-Sep-20 19:30N 37°56' W 008°51'0 0.4
2017-Sep-20 18:58N 37°56' W 008°51'0 0.0
2017-Sep-20 18:28N 37°56' W 008°51'0 0.0
2017-Sep-20 17:58N 37°56' W 008°51'0 0.0
2017-Sep-20 17:28N 37°56' W 008°51'0 0.0
2017-Sep-20 16:58N 37°56' W 008°51'0 0.0
2017-Sep-20 16:28N 37°56' W 008°51'0 0.0
2017-Sep-20 15:58N 37°56' W 008°51'0 0.0
2017-Sep-20 15:28N 37°56' W 008°51'0 0.0
2017-Sep-20 14:55N 37°56' W 008°51'0 0.0
2017-Sep-20 13:58N 37°56' W 008°51'0 0.0
2017-Sep-20 13:28N 37°56' W 008°51'0 0.0
2017-Sep-20 12:58N 37°56' W 008°51'0 0.0
2017-Sep-20 12:28N 37°56' W 008°51'0 0.0
2017-Sep-20 11:58N 37°56' W 008°51'0 0.0
2017-Sep-20 11:28N 37°56' W 008°51'0 0.0
2017-Sep-20 10:58N 37°56' W 008°51'0 0.0
2017-Sep-20 10:28N 37°56' W 008°51'0 0.0
2017-Sep-20 09:58N 37°56' W 008°51'0 0.0
2017-Sep-20 09:28N 37°56' W 008°51'0 0.0
2017-Sep-20 08:58N 37°56' W 008°51'0 0.1
2017-Sep-20 08:30N 37°56' W 008°51'0 0.9
2017-Sep-20 08:01N 37°55' W 008°50'2 4.3
2017-Sep-20 07:31N 37°54' W 008°52'4 7.4
2017-Sep-20 07:00N 37°54' W 008°56'611.4
2017-Sep-20 06:31N 37°55' W 009°03'510.9
2017-Sep-20 06:00N 37°58' W 009°09'713.8
2017-Sep-20 05:30N 38°02' W 009°16'918.0
2017-Sep-20 05:00N 38°08' W 009°24'918.2
2017-Sep-20 04:30N 38°15' W 009°33'1020.4
2017-Sep-20 04:01N 38°21' W 009°43'1121.1
2017-Sep-20 03:30N 38°28' W 009°53'1121.0
2017-Sep-20 03:00N 38°35' W 010°03'1121.1
2017-Sep-20 02:30N 38°45' W 010°05'1121.2
2017-Sep-20 02:00N 38°56' W 010°05'1121.2
2017-Sep-20 01:30N 39°07' W 010°04'1121.2
2017-Sep-20 01:00N 39°17' W 010°04'1121.3
2017-Sep-20 00:30N 39°28' W 010°04'1121.4
2017-Sep-20 00:00N 39°39' W 010°04'1221.4
2017-Sep-19 23:26N 39°51' W 010°06'921.5
2017-Sep-19 23:00N 39°60' W 010°06'50820.8
2017-Sep-18 22:38N 48°03' W 006°29'6522.0
2017-Sep-18 19:39N 48°59' W 005°36'322.6
2017-Sep-18 19:30N 49°00' W 005°31'1122.2
2017-Sep-18 19:00N 49°06' W 005°17'6320.5
2017-Sep-18 15:56N 49°37' W 003°53'919.7
2017-Sep-18 15:30N 49°41' W 003°41'1020.0
2017-Sep-18 15:00N 49°47' W 003°28'1120.6
2017-Sep-18 14:29N 49°52' W 003°14'1021.5
2017-Sep-18 14:00N 49°57' W 002°60'1122.4
2017-Sep-18 13:30N 49°60' W 002°43'1223.5
2017-Sep-18 13:00N 50°03' W 002°25'1224.2
2017-Sep-18 12:30N 50°06' W 002°07'1224.6
2017-Sep-18 12:01N 50°09' W 001°49'1224.3
2017-Sep-18 11:31N 50°13' W 001°31'1223.5
2017-Sep-18 11:01N 50°16' W 001°13'2821.9
2017-Sep-18 09:45N 50°23' W 000°31'521.1
2017-Sep-18 09:30N 50°24' W 000°23'1020.7
2017-Sep-18 09:00N 50°27' W 000°08'1720.1
2017-Sep-18 08:10N 50°31' E 000°18'519.6
2017-Sep-18 07:54N 50°33' E 000°26'819.6
2017-Sep-18 07:30N 50°35' E 000°37'1020.2
2017-Sep-18 07:00N 50°42' E 000°50'1121.1
2017-Sep-18 06:30N 50°49' E 001°02'1122.2
2017-Sep-18 06:00N 50°55' E 001°17'1223.9
2017-Sep-18 05:31N 51°03' E 001°30'1224.1
2017-Sep-18 05:00N 51°12' E 001°44'1122.7
2017-Sep-18 04:30N 51°22' E 001°51'1121.3
2017-Sep-18 04:01N 51°31' E 002°01'1121.4
2017-Sep-18 03:30N 51°38' E 002°13'1121.0
2017-Sep-18 03:00N 51°46' E 002°25'3319.1
2017-Sep-18 01:16N 52°02' E 003°12'620.2
2017-Sep-18 00:59N 52°03' E 003°21'919.1
2017-Sep-18 00:30N 52°03' E 003°36'917.6
2017-Sep-18 00:00N 52°03' E 003°50'5 9.1
2017-Sep-17 23:30N 52°01' E 003°57'510.9
2017-Sep-17 23:00N 51°59' E 004°05'1 2.3
2017-Sep-17 22:30N 51°58' E 004°04'0 0.3
2017-Sep-17 21:58N 51°58' E 004°04'0 0.0
2017-Sep-17 21:28N 51°58' E 004°04'0 0.0
2017-Sep-17 20:58N 51°58' E 004°04'0 0.0
2017-Sep-17 20:28N 51°58' E 004°04'0 0.0
2017-Sep-17 19:58N 51°58' E 004°04'0 0.0
2017-Sep-17 19:28N 51°58' E 004°04'0 0.0
2017-Sep-17 18:58N 51°58' E 004°04'0 0.0
2017-Sep-17 18:28N 51°58' E 004°04'0 0.0
2017-Sep-17 17:58N 51°58' E 004°04'0 0.0
2017-Sep-17 17:28N 51°58' E 004°04'0 0.0
2017-Sep-17 16:58N 51°58' E 004°04'0 0.0
2017-Sep-17 16:28N 51°58' E 004°04'0 0.0
2017-Sep-17 15:58N 51°58' E 004°04'0 0.0
2017-Sep-17 15:28N 51°58' E 004°04'0 0.0
2017-Sep-17 14:58N 51°58' E 004°04'0 0.0
2017-Sep-17 14:28N 51°58' E 004°04'0 0.0
2017-Sep-17 13:58N 51°58' E 004°04'0 0.0
2017-Sep-17 13:28N 51°58' E 004°04'0 0.0
2017-Sep-17 12:58N 51°58' E 004°04'0 0.0
2017-Sep-17 12:28N 51°58' E 004°04'0 0.0
2017-Sep-17 11:58N 51°58' E 004°04'0 0.0
2017-Sep-17 11:28N 51°58' E 004°04'0 0.0
2017-Sep-17 10:58N 51°58' E 004°04'0 0.0
2017-Sep-17 10:28N 51°58' E 004°04'0 0.0
2017-Sep-17 09:58N 51°58' E 004°04'0 0.0
2017-Sep-17 09:28N 51°58' E 004°04'0 0.0
2017-Sep-17 08:58N 51°58' E 004°04'0 0.0
2017-Sep-17 08:28N 51°58' E 004°04'0 0.0
2017-Sep-17 07:58N 51°58' E 004°04'0 0.0
2017-Sep-17 07:28N 51°58' E 004°04'0 0.0
2017-Sep-17 06:58N 51°58' E 004°04'0 0.0
2017-Sep-17 06:28N 51°58' E 004°04'0 0.0
2017-Sep-17 05:58N 51°58' E 004°04'0 0.0
2017-Sep-17 05:28N 51°58' E 004°04'0 0.0
2017-Sep-17 04:58N 51°58' E 004°04'0 0.0
2017-Sep-17 04:28N 51°58' E 004°04'0 0.0
2017-Sep-17 03:58N 51°58' E 004°04'0 0.0
2017-Sep-17 03:28N 51°58' E 004°04'0 0.0
2017-Sep-17 02:58N 51°58' E 004°04'0 0.0
2017-Sep-17 02:28N 51°58' E 004°04'0 0.0
2017-Sep-17 01:58N 51°58' E 004°04'0 0.0
2017-Sep-17 01:28N 51°58' E 004°04'0 0.0
2017-Sep-17 00:58N 51°58' E 004°04'0 0.0
2017-Sep-17 00:28N 51°58' E 004°04'0 0.0
2017-Sep-16 23:58N 51°58' E 004°04'0 0.0
2017-Sep-16 23:28N 51°58' E 004°04'0 0.0
2017-Sep-16 22:58N 51°58' E 004°04'0 0.0
2017-Sep-16 22:28N 51°58' E 004°04'0 0.0
2017-Sep-16 21:58N 51°58' E 004°04'0 0.0
2017-Sep-16 21:28N 51°58' E 004°04'0 0.0
2017-Sep-16 20:58N 51°58' E 004°04'0 0.0
2017-Sep-16 20:28N 51°58' E 004°04'0 0.0
2017-Sep-16 19:58N 51°58' E 004°04'0 0.0
2017-Sep-16 19:28N 51°58' E 004°04'0 0.0
2017-Sep-16 18:58N 51°58' E 004°04'0 0.0
2017-Sep-16 18:28N 51°58' E 004°04'0 0.0
2017-Sep-16 17:58N 51°58' E 004°04'0 0.0
2017-Sep-16 17:28N 51°58' E 004°04'0 0.0
2017-Sep-16 16:58N 51°58' E 004°04'0 0.0
2017-Sep-16 16:28N 51°58' E 004°04'0 0.0
2017-Sep-16 15:58N 51°58' E 004°04'0 0.0
2017-Sep-16 15:28N 51°58' E 004°04'0 0.0
2017-Sep-16 14:58N 51°58' E 004°04'0 0.0
2017-Sep-16 14:28N 51°58' E 004°04'0 0.0
2017-Sep-16 13:58N 51°58' E 004°04'0 0.0
2017-Sep-16 13:28N 51°58' E 004°04'0 0.0
2017-Sep-16 12:58N 51°58' E 004°04'0 0.0
2017-Sep-16 12:28N 51°58' E 004°04'0 0.0
2017-Sep-16 11:58N 51°58' E 004°04'0 0.0
2017-Sep-16 11:28N 51°58' E 004°04'0 0.0
2017-Sep-16 10:58N 51°58' E 004°04'0 0.0
2017-Sep-16 10:28N 51°58' E 004°04'0 0.0
2017-Sep-16 09:58N 51°58' E 004°04'0 0.0
2017-Sep-16 09:28N 51°58' E 004°04'0 0.0
2017-Sep-16 08:58N 51°58' E 004°04'0 0.0
2017-Sep-16 08:28N 51°58' E 004°04'0 0.0
2017-Sep-16 07:58N 51°58' E 004°04'0 0.0
2017-Sep-16 07:28N 51°58' E 004°04'0 0.0
2017-Sep-16 07:00N 51°58' E 004°04'0 0.9
2017-Sep-16 06:30N 51°58' E 004°04'2 3.4
2017-Sep-16 06:00N 51°59' E 004°03'612.1
2017-Sep-16 05:30N 52°00' E 003°54'612.2
2017-Sep-16 05:00N 52°01' E 003°44'4 7.5
2017-Sep-16 04:30N 51°58' E 003°39'510.5
2017-Sep-16 04:00N 51°56' E 003°31'510.2
2017-Sep-16 03:30N 51°53' E 003°25'0 0.2
2017-Sep-16 02:33N 51°52' E 003°25'0 0.2
2017-Sep-16 02:30N 51°52' E 003°25'0 0.1
2017-Sep-16 02:00N 51°52' E 003°25'0 0.1
2017-Sep-16 01:30N 51°52' E 003°26'0 0.1
2017-Sep-16 01:00N 51°52' E 003°26'0 0.1
2017-Sep-16 00:30N 51°53' E 003°26'0 0.1
2017-Sep-16 00:00N 51°53' E 003°26'0 0.0
2017-Sep-15 23:30N 51°53' E 003°26'0 0.0
2017-Sep-15 23:00N 51°53' E 003°26'0 0.0
2017-Sep-15 22:30N 51°53' E 003°26'0 0.0
2017-Sep-15 21:57N 51°53' E 003°26'0 0.0
2017-Sep-15 21:27N 51°53' E 003°26'0 0.1
2017-Sep-15 19:18N 51°52' E 003°26'0 0.1
2017-Sep-15 18:57N 51°52' E 003°26'0 0.1
2017-Sep-15 18:30N 51°52' E 003°26'0 0.1
2017-Sep-15 17:00N 51°52' E 003°25'0 0.0
2017-Sep-15 16:18N 51°52' E 003°25'0 0.0
2017-Sep-15 16:00N 51°52' E 003°25'0 0.1
2017-Sep-15 14:03N 51°52' E 003°26'0 0.1
2017-Sep-15 13:42N 51°52' E 003°26'0 0.1
2017-Sep-15 12:06N 51°53' E 003°26'0 0.1
2017-Sep-15 12:00N 51°53' E 003°26'0 0.1
2017-Sep-15 11:12N 51°53' E 003°26'0 0.0
2017-Sep-15 09:15N 51°53' E 003°26'0 0.0
2017-Sep-15 08:30N 51°53' E 003°26'0 0.1
2017-Sep-15 06:51N 51°52' E 003°26'0 0.0
2017-Sep-15 06:27N 51°52' E 003°26'0 0.1
2017-Sep-15 05:24N 51°52' E 003°25'0 0.1
2017-Sep-15 04:39N 51°52' E 003°25'0 0.1
2017-Sep-15 04:24N 51°52' E 003°25'0 0.0
2017-Sep-15 04:00N 51°52' E 003°25'0 0.0
2017-Sep-15 03:27N 51°52' E 003°25'0 0.0
2017-Sep-15 02:33N 51°52' E 003°25'0 0.1
2017-Sep-15 02:30N 51°52' E 003°25'0 0.0
2017-Sep-15 01:15N 51°52' E 003°25'0 0.1
2017-Sep-15 00:57N 51°52' E 003°25'0 0.1
2017-Sep-14 23:54N 51°52' E 003°26'0 0.2
2017-Sep-14 23:15N 51°53' E 003°26'0 0.0
2017-Sep-14 22:48N 51°53' E 003°26'0 0.1
2017-Sep-14 22:27N 51°53' E 003°26'0 0.0
2017-Sep-14 21:51N 51°53' E 003°26'0 0.0
2017-Sep-14 20:57N 51°53' E 003°26'0 0.0
2017-Sep-14 14:36N 51°52' E 003°26'0 0.0
2017-Sep-14 14:27N 51°52' E 003°26'0 0.1
2017-Sep-14 12:03N 51°53' E 003°26'0 0.1
2017-Sep-14 11:42N 51°53' E 003°26'0 0.2
2017-Sep-14 11:12N 51°53' E 003°26'0 0.1
2017-Sep-14 10:42N 51°53' E 003°26'0 0.2
2017-Sep-14 10:30N 51°53' E 003°26'0 0.1
2017-Sep-14 10:00N 51°53' E 003°26'0 0.1
2017-Sep-14 09:30N 51°53' E 003°26'0 0.1
2017-Sep-14 09:00N 51°53' E 003°26'0 0.0
2017-Sep-14 08:30N 51°53' E 003°26'0 0.0
2017-Sep-14 08:00N 51°53' E 003°26'0 0.0
2017-Sep-14 07:30N 51°53' E 003°26'0 0.1
2017-Sep-14 07:00N 51°53' E 003°26'0 0.0
2017-Sep-14 06:30N 51°53' E 003°26'0 0.1
2017-Sep-14 06:00N 51°53' E 003°26'0 0.1
2017-Sep-14 05:30N 51°53' E 003°26'0 0.2
2017-Sep-14 05:00N 51°53' E 003°26'0 0.0
2017-Sep-14 04:30N 51°53' E 003°26'0 0.0
2017-Sep-14 04:00N 51°52' E 003°26'0 0.2
2017-Sep-14 03:30N 51°52' E 003°26'0 0.0
2017-Sep-14 03:00N 51°52' E 003°26'0 0.0
2017-Sep-14 02:30N 51°52' E 003°26'0 0.0
2017-Sep-14 02:00N 51°52' E 003°26'0 0.2
2017-Sep-14 01:30N 51°53' E 003°26'0 0.0
2017-Sep-14 01:00N 51°53' E 003°26'0 0.1
2017-Sep-14 00:30N 51°53' E 003°26'0 0.0
2017-Sep-14 00:00N 51°53' E 003°26'0 0.1
2017-Sep-13 23:30N 51°53' E 003°26'0 0.0
2017-Sep-13 23:00N 51°53' E 003°26'0 0.0
2017-Sep-13 22:30N 51°53' E 003°26'0 0.1
2017-Sep-13 22:00N 51°53' E 003°26'0 0.1
2017-Sep-13 21:30N 51°53' E 003°26'0 0.0
2017-Sep-13 21:00N 51°53' E 003°26'0 0.3
2017-Sep-13 20:30N 51°53' E 003°26'510.2
2017-Sep-13 20:00N 51°52' E 003°17'2810.2
2017-Sep-13 17:17N 51°45' E 002°34'5 8.7
2017-Sep-13 16:41N 51°41' E 002°29'1 8.5
2017-Sep-13 16:30N 51°40' E 002°27'4 8.0
2017-Sep-13 16:00N 51°36' E 002°23'4 7.1
2017-Sep-13 15:30N 51°34' E 002°20'4 7.9
2017-Sep-13 15:01N 51°31' E 002°15'4 8.0
2017-Sep-13 14:31N 51°28' E 002°11'4 8.2
2017-Sep-13 14:01N 51°25' E 002°07'3 5.0
2017-Sep-13 13:30N 51°22' E 002°09'3 5.9
2017-Sep-13 13:01N 51°21' E 002°13'3 6.1
2017-Sep-13 12:31N 51°20' E 002°18'3 6.9
2017-Sep-13 12:01N 51°21' E 002°23'3 6.9
2017-Sep-13 11:30N 51°23' E 002°29'3 5.7
2017-Sep-13 11:01N 51°23' E 002°33'3 5.8
2017-Sep-13 10:31N 51°23' E 002°38'3 5.9
2017-Sep-13 10:01N 51°22' E 002°42'4 8.5
2017-Sep-13 09:30N 51°25' E 002°48'4 7.8
2017-Sep-13 09:01N 51°25' E 002°54'714.4
2017-Sep-13 08:31N 51°24' E 003°05'917.1
2017-Sep-13 08:00N 51°24' E 003°19'917.1
2017-Sep-13 07:30N 51°25' E 003°33'3 6.1
2017-Sep-13 07:01N 51°26' E 003°37'713.5
2017-Sep-13 06:31N 51°22' E 003°46'713.8
2017-Sep-13 06:01N 51°23' E 003°57'4 7.6
2017-Sep-13 05:30N 51°24' E 004°02'510.2
2017-Sep-13 05:00N 51°23' E 004°10'5 9.7
2017-Sep-13 04:30N 51°20' E 004°16'2 4.7
2017-Sep-13 04:00N 51°18' E 004°16'0 0.0
2017-Sep-13 03:29N 51°18' E 004°16'0 0.0
2017-Sep-13 02:56N 51°18' E 004°16'0 0.0
2017-Sep-13 02:29N 51°18' E 004°16'0 0.0
2017-Sep-13 01:59N 51°18' E 004°16'0 0.0
2017-Sep-13 01:29N 51°18' E 004°16'0 0.0
2017-Sep-13 00:59N 51°18' E 004°16'0 0.0
2017-Sep-13 00:26N 51°18' E 004°16'0 0.0
2017-Sep-12 23:59N 51°18' E 004°16'0 0.0
2017-Sep-12 23:29N 51°18' E 004°16'0 0.0
2017-Sep-12 22:59N 51°18' E 004°16'0 0.0
2017-Sep-12 22:29N 51°18' E 004°16'0 0.0
2017-Sep-12 21:59N 51°18' E 004°16'0 0.0
2017-Sep-12 21:29N 51°18' E 004°16'0 0.0
2017-Sep-12 20:59N 51°18' E 004°16'0 0.0
2017-Sep-12 20:29N 51°18' E 004°16'0 0.0
2017-Sep-12 19:59N 51°18' E 004°16'0 0.0
2017-Sep-12 19:29N 51°18' E 004°16'0 0.0
2017-Sep-12 18:59N 51°18' E 004°16'0 0.0
2017-Sep-12 18:29N 51°18' E 004°16'0 0.0
2017-Sep-12 17:59N 51°18' E 004°16'0 0.0
2017-Sep-12 17:29N 51°18' E 004°16'0 0.0
2017-Sep-12 16:59N 51°18' E 004°16'0 0.0
2017-Sep-12 16:29N 51°18' E 004°16'0 0.0
2017-Sep-12 15:59N 51°18' E 004°16'0 0.0
2017-Sep-12 15:29N 51°18' E 004°16'0 0.0
2017-Sep-12 14:59N 51°18' E 004°16'0 0.0
2017-Sep-12 14:29N 51°18' E 004°16'0 0.0
2017-Sep-12 13:59N 51°18' E 004°16'0 0.0
2017-Sep-12 13:29N 51°18' E 004°16'0 0.0
2017-Sep-12 12:59N 51°18' E 004°16'0 0.0
2017-Sep-12 12:29N 51°18' E 004°16'0 0.0
2017-Sep-12 11:59N 51°18' E 004°16'0 0.0
2017-Sep-12 11:29N 51°18' E 004°16'0 0.0
2017-Sep-12 10:59N 51°18' E 004°16'0 0.0
2017-Sep-12 10:29N 51°18' E 004°16'0 0.0
2017-Sep-12 09:59N 51°18' E 004°16'0 0.0
2017-Sep-12 09:29N 51°18' E 004°16'0 0.0
2017-Sep-12 08:59N 51°18' E 004°16'0 0.0
2017-Sep-12 08:29N 51°18' E 004°16'0 0.0
2017-Sep-12 07:59N 51°18' E 004°16'0 0.0
2017-Sep-12 07:29N 51°18' E 004°16'0 0.0
2017-Sep-12 06:59N 51°18' E 004°16'0 0.0
2017-Sep-12 06:29N 51°18' E 004°16'0 0.0
2017-Sep-12 05:59N 51°18' E 004°16'0 0.0
2017-Sep-12 05:29N 51°18' E 004°16'0 0.0
2017-Sep-12 04:59N 51°18' E 004°16'0 0.0
2017-Sep-12 04:26N 51°18' E 004°16'0 0.0
2017-Sep-12 03:59N 51°18' E 004°16'0 0.0
2017-Sep-12 03:29N 51°18' E 004°16'0 0.0
2017-Sep-12 02:59N 51°18' E 004°16'0 0.0
2017-Sep-12 02:29N 51°18' E 004°16'  

Dump ship's entire track history